Time;durP1;ratioP1;P1;durP2;ratioP2;P2;SDS_P1;SDS_P2;PMS_P1;PMS_P2;Temp;Humidity;BMP_temperature;BMP_pressure;BME280_temperature;BME280_humidity;BME280_pressure;Samples;Min_cycle;Max_cycle;Signal;HPM_P1;HPM_P2
2022/10/01 00:02:02;;;;;;;2.43;2.30;;;;;;;;;;4962137;28;20233;-73
2022/10/01 00:04:28;;;;;;;3.00;2.30;;;;;;;;;;5009844;28;20239;-73
2022/10/01 00:06:53;;;;;;;3.60;2.20;;;;;;;;;;4996918;28;20240;-72
2022/10/01 00:09:22;;;;;;;3.13;2.33;;;;;;;;;;4997100;28;20216;-73
2022/10/01 00:11:47;;;;;;;2.53;2.23;;;;;;;;;;4993411;28;20891;-73
2022/10/01 00:14:16;;;;;;;2.57;2.37;;;;;;;;;;4961348;28;20229;-73
2022/10/01 00:16:44;;;;;;;3.13;2.60;;;;;;;;;;4976524;28;20224;-72
2022/10/01 00:19:13;;;;;;;3.67;2.30;;;;;;;;;;4958932;28;20738;-73
2022/10/01 00:21:41;;;;;;;2.73;2.17;;;;;;;;;;4982116;28;20578;-74
2022/10/01 00:24:07;;;;;;;3.57;2.43;;;;;;;;;;4958570;28;20286;-72
2022/10/01 00:26:33;;;;;;;3.80;2.50;;;;;;;;;;4979174;28;20233;-73
2022/10/01 00:29:05;;;;;;;2.37;2.17;;;;;;;;;;4974699;28;20224;-72
2022/10/01 00:31:33;;;;;;;2.27;2.10;;;;;;;;;;4974054;28;20229;-74
2022/10/01 00:33:59;;;;;;;3.40;2.10;;;;;;;;;;4983204;28;20233;-73
2022/10/01 00:36:27;;;;;;;2.40;2.20;;;;;;;;;;5009052;28;20834;-72
2022/10/01 00:38:57;;;;;;;2.57;2.30;;;;;;;;;;5008891;28;20228;-72
2022/10/01 00:41:25;;;;;;;4.50;2.27;;;;;;;;;;4993533;28;20232;-74
2022/10/01 00:43:55;;;;;;;2.37;2.13;;;;;;;;;;4992830;28;20311;-73
2022/10/01 00:46:31;;;;;;;2.10;1.90;;;;;;;;;;4976874;28;20220;-72
2022/10/01 00:49:11;;;;;;;2.70;1.87;;;;;;;;;;4991875;28;20690;-72
2022/10/01 00:51:43;;;;;;;2.63;2.07;;;;;;;;;;4964143;28;20221;-74
2022/10/01 00:54:20;;;;;;;3.33;2.00;;;;;;;;;;4978955;28;20229;-73
2022/10/01 00:56:45;;;;;;;2.17;2.00;;;;;;;;;;4995021;28;20266;-73
2022/10/01 00:59:11;;;;;;;2.87;2.00;;;;;;;;;;4963119;28;20233;-73
2022/10/01 01:01:38;;;;;;;2.43;2.00;;;;;;;;;;4959370;28;20223;-73
2022/10/01 01:04:15;;;;;;;2.20;2.00;;;;;;;;;;4986572;28;20256;-73
2022/10/01 01:06:42;;;;;;;2.40;2.20;;;;;;;;;;4979262;28;20224;-73
2022/10/01 01:09:08;;;;;;;2.53;1.93;;;;;;;;;;5008503;28;20245;-74
2022/10/01 01:11:56;;;;;;;2.67;2.17;;;;;;;;;;5009924;28;20317;-74
2022/10/01 01:14:30;;;;;;;2.97;2.20;;;;;;;;;;4976759;28;20234;-74
2022/10/01 01:17:01;;;;;;;2.37;2.17;;;;;;;;;;4992394;28;20258;-75
2022/10/01 01:20:17;;;;;;;2.63;1.90;;;;;;;;;;4992532;28;20283;-74
2022/10/01 01:23:15;;;;;;;4.00;2.10;;;;;;;;;;4899226;29;20271;-73
2022/10/01 01:25:46;;;;;;;1.90;1.80;;;;;;;;;;5008383;28;20252;-73
2022/10/01 01:28:18;;;;;;;2.33;2.13;;;;;;;;;;4993568;28;20248;-71
2022/10/01 01:30:44;;;;;;;2.73;2.07;;;;;;;;;;4993608;28;20307;-73
2022/10/01 01:33:14;;;;;;;3.80;2.13;;;;;;;;;;4968292;28;20228;-73
2022/10/01 01:35:45;;;;;;;2.97;2.27;;;;;;;;;;4980103;28;20231;-74
2022/10/01 01:38:17;;;;;;;2.17;1.97;;;;;;;;;;4978852;28;20235;-74
2022/10/01 01:40:43;;;;;;;2.93;2.13;;;;;;;;;;4979094;28;20239;-74
2022/10/01 01:43:12;;;;;;;2.00;1.80;;;;;;;;;;4991986;28;20228;-73
2022/10/01 01:45:40;;;;;;;2.87;2.13;;;;;;;;;;4996590;28;20257;-73
2022/10/01 01:48:07;;;;;;;2.63;2.40;;;;;;;;;;4974452;28;20274;-73
2022/10/01 01:50:34;;;;;;;3.13;2.23;;;;;;;;;;4962432;28;20775;-73
2022/10/01 01:52:59;;;;;;;3.03;2.43;;;;;;;;;;4978407;28;20260;-73
2022/10/01 01:55:25;;;;;;;2.47;2.27;;;;;;;;;;4965580;28;20698;-74
2022/10/01 01:57:53;;;;;;;3.50;2.17;;;;;;;;;;4986306;28;20265;-75
2022/10/01 02:00:21;;;;;;;2.10;2.00;;;;;;;;;;4978856;28;20611;-74
2022/10/01 02:02:48;;;;;;;2.50;2.30;;;;;;;;;;4992801;28;20290;-74
2022/10/01 02:05:18;;;;;;;2.47;2.20;;;;;;;;;;4961583;28;20233;-74
2022/10/01 02:08:14;;;;;;;2.50;2.30;;;;;;;;;;4978195;28;20308;-74
2022/10/01 02:11:14;;;;;;;2.33;2.00;;;;;;;;;;4979681;28;20229;-74
2022/10/01 02:13:52;;;;;;;2.43;2.23;;;;;;;;;;5010461;28;20244;-74
2022/10/01 02:16:36;;;;;;;2.67;2.30;;;;;;;;;;4994385;28;20232;-74
2022/10/01 02:19:13;;;;;;;2.90;2.13;;;;;;;;;;4994669;28;20707;-73
2022/10/01 02:21:43;;;;;;;7.43;2.53;;;;;;;;;;4997057;28;20251;-73
2022/10/01 02:24:21;;;;;;;2.40;2.17;;;;;;;;;;4994905;28;20225;-72
2022/10/01 02:26:47;;;;;;;2.90;2.03;;;;;;;;;;5010253;28;20732;-73
2022/10/01 02:29:15;;;;;;;4.00;2.20;;;;;;;;;;4972860;28;20237;-73
2022/10/01 02:31:41;;;;;;;2.30;2.10;;;;;;;;;;4977433;28;20225;-74
2022/10/01 02:34:08;;;;;;;2.30;2.10;;;;;;;;;;4997098;28;21229;-73
2022/10/01 02:36:40;;;;;;;5.83;2.57;;;;;;;;;;4968587;28;20271;-73
2022/10/01 02:39:08;;;;;;;4.00;2.20;;;;;;;;;;4968401;28;20708;-72
2022/10/01 02:41:34;;;;;;;5.47;2.30;;;;;;;;;;4995516;28;20220;-75
2022/10/01 02:44:08;;;;;;;2.30;2.10;;;;;;;;;;4977720;28;20232;-74
2022/10/01 02:46:41;;;;;;;2.67;2.30;;;;;;;;;;4992689;28;20228;-73
2022/10/01 02:49:06;;;;;;;2.57;2.03;;;;;;;;;;5009960;28;20229;-74
2022/10/01 02:51:35;;;;;;;2.37;2.00;;;;;;;;;;4981679;28;20289;-73
2022/10/01 02:54:07;;;;;;;2.87;2.07;;;;;;;;;;4994336;28;20317;-73
2022/10/01 02:59:22;;;;;;;2.20;2.10;;;;;;;;;;4998397;28;20741;-72
2022/10/01 03:01:48;;;;;;;4.07;2.23;;;;;;;;;;4994890;28;20260;-73
2022/10/01 03:04:18;;;;;;;3.80;2.00;;;;;;;;;;4991662;28;20232;-74
2022/10/01 03:06:45;;;;;;;2.23;2.03;;;;;;;;;;4997844;28;20224;-74
2022/10/01 03:09:15;;;;;;;1.80;1.70;;;;;;;;;;4975206;28;20221;-73
2022/10/01 03:11:43;;;;;;;2.33;1.73;;;;;;;;;;5004376;28;20228;-73
2022/10/01 03:14:11;;;;;;;2.43;2.03;;;;;;;;;;4978799;28;20224;-73
2022/10/01 03:16:41;;;;;;;2.77;2.07;;;;;;;;;;4994533;28;20649;-74
2022/10/01 03:19:09;;;;;;;2.10;1.90;;;;;;;;;;4961577;28;20753;-74
2022/10/01 03:21:35;;;;;;;2.43;1.90;;;;;;;;;;4994815;28;20216;-73
2022/10/01 03:24:05;;;;;;;2.50;1.87;;;;;;;;;;4994957;28;20236;-73
2022/10/01 03:26:33;;;;;;;2.03;1.83;;;;;;;;;;4994203;28;20232;-73
2022/10/01 03:28:59;;;;;;;2.53;2.00;;;;;;;;;;4992620;28;20243;-74
2022/10/01 03:31:24;;;;;;;1.80;1.70;;;;;;;;;;4997736;28;20706;-73
2022/10/01 03:33:59;;;;;;;4.90;2.20;;;;;;;;;;4966239;28;20225;-73
2022/10/01 03:36:30;;;;;;;1.77;1.67;;;;;;;;;;4981501;28;20269;-73
2022/10/01 03:38:58;;;;;;;5.07;1.77;;;;;;;;;;4995814;28;20240;-73
2022/10/01 03:41:23;;;;;;;5.67;2.10;;;;;;;;;;4980436;28;20252;-73
2022/10/01 03:43:53;;;;;;;2.23;1.80;;;;;;;;;;4975140;28;20224;-74
2022/10/01 03:46:21;;;;;;;1.80;1.70;;;;;;;;;;5009289;28;20261;-73
2022/10/01 03:48:51;;;;;;;1.90;1.80;;;;;;;;;;4967216;28;20600;-73
2022/10/01 03:51:19;;;;;;;3.03;1.97;;;;;;;;;;4960265;28;20228;-74
2022/10/01 03:53:46;;;;;;;3.87;2.30;;;;;;;;;;4962837;28;20221;-74
2022/10/01 03:56:12;;;;;;;2.23;1.57;;;;;;;;;;4980013;28;20228;-74
2022/10/01 03:58:44;;;;;;;3.60;1.80;;;;;;;;;;4993821;28;20223;-73
2022/10/01 04:01:12;;;;;;;3.07;2.87;;;;;;;;;;4993573;28;20736;-73
2022/10/01 04:03:38;;;;;;;3.20;2.00;;;;;;;;;;4996580;28;20224;-74
2022/10/01 04:06:03;;;;;;;2.10;1.90;;;;;;;;;;4965378;28;20255;-74
2022/10/01 04:08:29;;;;;;;4.40;4.00;;;;;;;;;;5005083;28;20228;-74
2022/10/01 04:10:54;;;;;;;5.63;2.20;;;;;;;;;;5010010;28;20224;-75
2022/10/01 04:13:22;;;;;;;3.23;1.80;;;;;;;;;;4990582;28;20221;-74
2022/10/01 04:15:48;;;;;;;3.27;2.13;;;;;;;;;;4975654;28;20378;-75
2022/10/01 04:18:16;;;;;;;2.97;2.30;;;;;;;;;;4976960;28;20691;-74
2022/10/01 04:20:44;;;;;;;2.43;2.23;;;;;;;;;;4994553;28;20224;-73
2022/10/01 04:23:12;;;;;;;2.13;1.93;;;;;;;;;;4992224;28;20253;-74
2022/10/01 04:25:37;;;;;;;4.10;2.40;;;;;;;;;;4986668;28;20230;-73
2022/10/01 04:28:09;;;;;;;2.47;2.27;;;;;;;;;;4995448;28;20220;-74
2022/10/01 04:30:40;;;;;;;5.20;3.80;;;;;;;;;;4991588;28;20244;-74
2022/10/01 04:33:13;;;;;;;2.57;2.30;;;;;;;;;;4977595;28;20228;-74
2022/10/01 04:35:39;;;;;;;2.70;2.50;;;;;;;;;;4990549;28;20247;-74
2022/10/01 04:38:11;;;;;;;3.80;3.50;;;;;;;;;;4945367;28;20228;-74
2022/10/01 04:40:39;;;;;;;2.90;2.70;;;;;;;;;;4977492;28;20220;-76
2022/10/01 04:43:09;;;;;;;2.70;2.50;;;;;;;;;;4978779;28;20220;-75
2022/10/01 04:45:38;;;;;;;3.00;2.80;;;;;;;;;;4976396;28;20248;-75
2022/10/01 04:48:04;;;;;;;3.20;3.00;;;;;;;;;;4993082;28;20232;-74
2022/10/01 04:50:32;;;;;;;4.97;3.30;;;;;;;;;;4973959;28;20300;-75
2022/10/01 04:52:59;;;;;;;4.63;3.47;;;;;;;;;;4991880;28;20221;-75
2022/10/01 04:55:27;;;;;;;4.40;3.17;;;;;;;;;;5007403;28;20224;-75
2022/10/01 04:57:53;;;;;;;3.10;2.90;;;;;;;;;;5009313;28;20223;-75
2022/10/01 05:00:20;;;;;;;3.33;3.13;;;;;;;;;;4993017;28;20225;-73
2022/10/01 05:02:47;;;;;;;3.77;3.47;;;;;;;;;;4978209;28;20235;-73
2022/10/01 05:05:16;;;;;;;5.20;3.50;;;;;;;;;;4977628;28;20221;-73
2022/10/01 05:07:42;;;;;;;3.70;3.27;;;;;;;;;;4964923;28;20220;-75
2022/10/01 05:10:10;;;;;;;4.00;3.60;;;;;;;;;;4983863;28;20618;-74
2022/10/01 05:12:40;;;;;;;3.67;3.33;;;;;;;;;;4961604;28;20224;-73
2022/10/01 05:15:08;;;;;;;3.73;3.27;;;;;;;;;;4999490;28;20227;-74
2022/10/01 05:17:39;;;;;;;5.90;3.27;;;;;;;;;;4997961;28;20311;-73
2022/10/01 05:20:05;;;;;;;3.70;3.40;;;;;;;;;;4998063;28;20220;-74
2022/10/01 05:22:33;;;;;;;4.13;3.50;;;;;;;;;;4979932;28;20224;-74
2022/10/01 05:25:03;;;;;;;3.93;3.63;;;;;;;;;;5011907;28;20229;-75
2022/10/01 05:27:35;;;;;;;3.87;3.50;;;;;;;;;;4992127;28;20220;-74
2022/10/01 05:30:04;;;;;;;4.30;3.93;;;;;;;;;;4998831;28;20335;-74
2022/10/01 05:32:32;;;;;;;4.53;4.13;;;;;;;;;;4988680;28;20217;-74
2022/10/01 05:35:02;;;;;;;4.30;4.00;;;;;;;;;;5013189;28;20221;-74
2022/10/01 05:37:29;;;;;;;4.07;3.77;;;;;;;;;;4997792;28;20225;-75
2022/10/01 05:39:57;;;;;;;5.30;4.10;;;;;;;;;;5013297;28;20227;-73
2022/10/01 05:42:23;;;;;;;4.80;4.33;;;;;;;;;;4979634;28;20757;-74
2022/10/01 05:44:48;;;;;;;5.20;4.13;;;;;;;;;;5011968;28;20224;-74
2022/10/01 05:47:19;;;;;;;5.47;4.50;;;;;;;;;;4998041;28;20710;-74
2022/10/01 05:49:47;;;;;;;6.97;4.37;;;;;;;;;;4995372;28;20212;-75
2022/10/01 05:52:13;;;;;;;5.20;4.70;;;;;;;;;;4997623;28;20228;-75
2022/10/01 05:54:39;;;;;;;6.47;4.67;;;;;;;;;;4995099;28;20713;-74
2022/10/01 05:57:08;;;;;;;4.77;4.47;;;;;;;;;;4991980;28;20315;-74
2022/10/01 05:59:34;;;;;;;4.90;4.53;;;;;;;;;;4964544;28;20600;-73
2022/10/01 06:01:59;;;;;;;5.53;4.57;;;;;;;;;;4978903;28;20228;-73
2022/10/01 06:04:25;;;;;;;5.03;4.60;;;;;;;;;;4980359;28;20311;-74
2022/10/01 06:06:52;;;;;;;5.43;5.00;;;;;;;;;;4978555;28;20229;-74
2022/10/01 06:09:20;;;;;;;5.07;4.67;;;;;;;;;;4994766;28;20219;-73
2022/10/01 06:11:47;;;;;;;5.70;5.20;;;;;;;;;;4977513;28;20679;-74
2022/10/01 06:14:15;;;;;;;5.20;4.70;;;;;;;;;;5010432;28;20221;-73
2022/10/01 06:16:41;;;;;;;5.20;4.70;;;;;;;;;;4999351;28;20278;-73
2022/10/01 06:19:07;;;;;;;5.50;4.97;;;;;;;;;;4975078;28;20294;-74
2022/10/01 06:21:32;;;;;;;5.70;5.17;;;;;;;;;;4996009;28;20236;-74
2022/10/01 06:23:58;;;;;;;5.57;5.07;;;;;;;;;;4979489;28;20252;-74
2022/10/01 06:26:25;;;;;;;5.20;4.70;;;;;;;;;;4991848;28;20707;-73
2022/10/01 06:28:53;;;;;;;5.50;5.10;;;;;;;;;;4979301;28;20224;-73
2022/10/01 06:31:21;;;;;;;5.77;5.17;;;;;;;;;;4978885;28;20219;-73
2022/10/01 06:33:49;;;;;;;6.53;5.73;;;;;;;;;;4979729;28;20718;-74
2022/10/01 06:36:17;;;;;;;5.83;5.20;;;;;;;;;;4996203;28;20227;-74
2022/10/01 06:38:42;;;;;;;5.10;4.67;;;;;;;;;;4995088;28;20235;-73
2022/10/01 06:41:08;;;;;;;5.03;4.67;;;;;;;;;;5012403;28;20224;-74
2022/10/01 06:43:34;;;;;;;5.33;4.80;;;;;;;;;;4993944;28;20221;-73
2022/10/01 06:46:04;;;;;;;4.73;4.33;;;;;;;;;;4993754;28;20751;-73
2022/10/01 06:48:34;;;;;;;4.40;4.10;;;;;;;;;;4994518;28;20229;-75
2022/10/01 06:51:02;;;;;;;5.80;3.93;;;;;;;;;;4965924;28;20225;-73
2022/10/01 06:53:27;;;;;;;4.10;3.80;;;;;;;;;;4976001;28;20271;-74
2022/10/01 06:55:53;;;;;;;4.83;3.80;;;;;;;;;;4995404;28;20316;-74
2022/10/01 06:58:21;;;;;;;3.80;3.50;;;;;;;;;;4991751;28;20296;-73
2022/10/01 07:00:46;;;;;;;4.07;3.67;;;;;;;;;;4977449;28;20256;-75
2022/10/01 07:03:19;;;;;;;4.10;3.70;;;;;;;;;;4993918;28;20302;-74
2022/10/01 07:05:45;;;;;;;6.17;4.20;;;;;;;;;;4978885;28;20250;-75
2022/10/01 07:08:12;;;;;;;4.73;4.33;;;;;;;;;;4979062;28;20722;-74
2022/10/01 07:10:41;;;;;;;4.93;4.43;;;;;;;;;;4980584;28;20772;-73
2022/10/01 07:13:10;;;;;;;4.57;4.17;;;;;;;;;;4993293;28;20224;-74
2022/10/01 07:15:36;;;;;;;4.57;4.17;;;;;;;;;;4993749;28;20334;-74
2022/10/01 07:18:04;;;;;;;3.63;3.43;;;;;;;;;;4977334;28;20224;-74
2022/10/01 07:20:34;;;;;;;4.23;3.93;;;;;;;;;;4985676;28;20231;-74
2022/10/01 07:23:02;;;;;;;3.90;3.60;;;;;;;;;;4978755;28;20228;-76
2022/10/01 07:25:32;;;;;;;4.33;3.60;;;;;;;;;;5004007;28;20232;-73
2022/10/01 07:28:04;;;;;;;4.03;3.67;;;;;;;;;;4976314;28;20714;-74
2022/10/01 07:30:30;;;;;;;3.90;3.60;;;;;;;;;;4990320;28;20709;-73
2022/10/01 07:32:58;;;;;;;3.87;3.57;;;;;;;;;;4993228;28;20225;-75
2022/10/01 07:35:27;;;;;;;3.00;2.70;;;;;;;;;;4993982;28;20229;-75
2022/10/01 07:37:54;;;;;;;3.63;3.23;;;;;;;;;;4976348;28;20252;-73
2022/10/01 07:40:22;;;;;;;4.67;3.27;;;;;;;;;;4975641;28;20691;-73
2022/10/01 07:42:54;;;;;;;2.97;2.70;;;;;;;;;;4959542;28;20256;-74
2022/10/01 07:45:20;;;;;;;3.07;2.87;;;;;;;;;;4993030;28;20236;-74
2022/10/01 07:47:57;;;;;;;3.87;2.63;;;;;;;;;;4978786;28;20225;-75
2022/10/01 07:50:23;;;;;;;2.80;2.60;;;;;;;;;;4995005;28;20242;-73
2022/10/01 07:52:55;;;;;;;2.97;2.77;;;;;;;;;;4971039;28;20308;-75
2022/10/01 07:55:26;;;;;;;2.80;2.60;;;;;;;;;;4960929;28;20224;-72
2022/10/01 07:57:55;;;;;;;2.50;2.40;;;;;;;;;;4992656;28;20267;-74
2022/10/01 08:00:21;;;;;;;2.50;2.30;;;;;;;;;;4993663;28;20713;-73
2022/10/01 08:02:52;;;;;;;2.60;2.40;;;;;;;;;;4959907;28;20217;-72
2022/10/01 08:05:19;;;;;;;2.70;2.50;;;;;;;;;;4993668;28;20235;-72
2022/10/01 08:07:47;;;;;;;2.63;2.30;;;;;;;;;;4976768;28;20867;-74
2022/10/01 08:10:16;;;;;;;2.87;2.67;;;;;;;;;;4976249;28;20225;-74
2022/10/01 08:12:44;;;;;;;4.50;2.50;;;;;;;;;;5009275;28;20229;-74
2022/10/01 08:15:16;;;;;;;3.87;2.63;;;;;;;;;;4991714;28;20228;-75
2022/10/01 08:17:44;;;;;;;2.53;2.37;;;;;;;;;;4977085;28;20299;-75
2022/10/01 08:20:13;;;;;;;2.07;1.97;;;;;;;;;;4978926;28;21032;-72
2022/10/01 08:22:43;;;;;;;2.40;2.20;;;;;;;;;;4994140;28;20235;-74
2022/10/01 08:25:14;;;;;;;2.10;2.00;;;;;;;;;;4980542;28;20224;-75
2022/10/01 08:27:41;;;;;;;4.70;2.17;;;;;;;;;;4965550;28;20229;-75
2022/10/01 08:30:07;;;;;;;2.30;2.10;;;;;;;;;;4962892;28;20228;-76
2022/10/01 08:32:33;;;;;;;2.13;1.93;;;;;;;;;;5008580;28;20232;-76
2022/10/01 08:34:58;;;;;;;2.70;2.47;;;;;;;;;;4980535;28;20744;-76
2022/10/01 08:37:29;;;;;;;3.67;2.20;;;;;;;;;;4992709;28;20228;-75
2022/10/01 08:39:55;;;;;;;3.53;2.70;;;;;;;;;;4996163;28;20232;-75
2022/10/01 08:42:40;;;;;;;2.60;2.40;;;;;;;;;;4994164;28;20216;-75
2022/10/01 08:45:17;;;;;;;2.40;2.20;;;;;;;;;;4983361;28;20232;-72
2022/10/01 08:48:00;;;;;;;2.80;2.47;;;;;;;;;;4995959;28;20213;-76
2022/10/01 08:50:46;;;;;;;6.60;4.67;;;;;;;;;;4995706;28;20220;-75
2022/10/01 08:53:16;;;;;;;4.17;3.70;;;;;;;;;;4974262;28;20317;-76
2022/10/01 08:55:44;;;;;;;3.03;2.40;;;;;;;;;;4992120;28;20762;-75
2022/10/01 08:58:14;;;;;;;3.00;2.80;;;;;;;;;;4999286;28;20220;-76
2022/10/01 09:00:44;;;;;;;2.60;2.40;;;;;;;;;;4997644;28;20231;-75
2022/10/01 09:03:11;;;;;;;3.13;2.47;;;;;;;;;;4978804;28;20220;-75
2022/10/01 09:05:45;;;;;;;2.80;2.60;;;;;;;;;;4976998;28;20231;-75
2022/10/01 09:08:42;;;;;;;3.40;3.20;;;;;;;;;;4995080;28;20260;-76
2022/10/01 09:11:33;;;;;;;2.93;2.60;;;;;;;;;;4995108;28;20256;-75
2022/10/01 09:14:17;;;;;;;3.80;3.50;;;;;;;;;;5008143;28;20304;-74
2022/10/01 09:16:48;;;;;;;2.40;2.30;;;;;;;;;;4999874;28;20821;-76
2022/10/01 09:19:34;;;;;;;4.20;2.67;;;;;;;;;;5004358;28;20213;-75
2022/10/01 09:22:04;;;;;;;2.83;2.63;;;;;;;;;;5001628;28;20236;-76
2022/10/01 09:24:43;;;;;;;3.07;2.87;;;;;;;;;;4975044;28;20228;-77
2022/10/01 09:27:16;;;;;;;2.70;2.50;;;;;;;;;;4992443;28;20271;-76
2022/10/01 09:29:48;;;;;;;2.70;2.50;;;;;;;;;;4992559;28;20665;-76
2022/10/01 09:32:15;;;;;;;4.03;2.87;;;;;;;;;;4992132;28;20221;-76
2022/10/01 09:34:43;;;;;;;2.83;2.63;;;;;;;;;;4991994;28;20231;-75
2022/10/01 09:37:23;;;;;;;3.67;2.63;;;;;;;;;;4991651;28;20303;-76
2022/10/01 09:40:13;;;;;;;2.80;2.60;;;;;;;;;;5010569;28;20273;-73
2022/10/01 09:42:39;;;;;;;2.90;2.70;;;;;;;;;;5007002;28;20231;-75
2022/10/01 09:45:05;;;;;;;2.87;2.67;;;;;;;;;;4977306;28;20225;-75
2022/10/01 09:47:30;;;;;;;3.03;2.83;;;;;;;;;;4990575;28;20220;-74
2022/10/01 09:49:59;;;;;;;2.63;2.53;;;;;;;;;;4963084;28;20227;-74
2022/10/01 09:52:33;;;;;;;3.37;2.50;;;;;;;;;;4959058;28;20356;-74
2022/10/01 09:55:17;;;;;;;2.90;2.70;;;;;;;;;;4991944;28;20352;-75
2022/10/01 09:58:07;;;;;;;3.40;3.07;;;;;;;;;;4996791;28;20233;-75
2022/10/01 10:00:33;;;;;;;3.10;2.80;;;;;;;;;;4995703;28;20229;-74
2022/10/01 10:03:00;;;;;;;3.40;3.20;;;;;;;;;;4997771;28;20304;-75
2022/10/01 10:05:29;;;;;;;2.83;2.63;;;;;;;;;;4997727;28;20228;-75
2022/10/01 10:08:05;;;;;;;2.93;2.73;;;;;;;;;;4994827;28;20263;-76
2022/10/01 10:10:35;;;;;;;2.83;2.60;;;;;;;;;;5005676;28;20224;-75
2022/10/01 10:13:09;;;;;;;3.60;3.40;;;;;;;;;;4978448;28;20722;-76
2022/10/01 10:15:36;;;;;;;2.70;2.57;;;;;;;;;;4996174;28;20236;-76
2022/10/01 10:18:16;;;;;;;3.17;2.97;;;;;;;;;;4994657;28;20699;-75
2022/10/01 10:20:45;;;;;;;3.73;3.53;;;;;;;;;;4983103;28;20232;-75
2022/10/01 10:23:20;;;;;;;4.13;3.80;;;;;;;;;;4981798;28;20603;-76
2022/10/01 10:26:04;;;;;;;3.17;3.03;;;;;;;;;;4996484;28;20232;-75
2022/10/01 10:28:43;;;;;;;4.07;3.77;;;;;;;;;;4985704;28;20300;-75
2022/10/01 10:31:22;;;;;;;4.80;4.43;;;;;;;;;;4993221;28;20229;-75
2022/10/01 10:33:51;;;;;;;5.30;4.90;;;;;;;;;;4980113;28;20236;-75
2022/10/01 10:36:19;;;;;;;5.50;5.10;;;;;;;;;;5004854;28;20223;-76
2022/10/01 10:38:52;;;;;;;5.77;5.30;;;;;;;;;;4997820;28;20227;-76
2022/10/01 10:41:21;;;;;;;5.17;4.87;;;;;;;;;;4991371;28;20240;-75
2022/10/01 10:43:49;;;;;;;7.80;7.10;;;;;;;;;;4980146;28;20217;-75
2022/10/01 10:46:43;;;;;;;11.13;8.13;;;;;;;;;;4997821;28;20717;-76
2022/10/01 10:49:28;;;;;;;6.97;6.47;;;;;;;;;;5009486;28;20290;-77
2022/10/01 10:51:55;;;;;;;8.90;7.97;;;;;;;;;;4983552;28;20303;-77
2022/10/01 10:54:25;;;;;;;6.87;6.37;;;;;;;;;;4977675;28;20219;-77
2022/10/01 10:57:30;;;;;;;6.33;5.57;;;;;;;;;;5009878;28;20232;-77
2022/10/01 11:00:01;;;;;;;7.80;7.10;;;;;;;;;;4963624;28;20228;-78
2022/10/01 11:02:31;;;;;;;6.07;5.67;;;;;;;;;;4974014;28;20299;-77
2022/10/01 11:05:23;;;;;;;6.20;5.60;;;;;;;;;;4993883;28;20782;-77
2022/10/01 11:07:53;;;;;;;5.30;4.90;;;;;;;;;;4995700;28;20760;-77
2022/10/01 11:10:34;;;;;;;4.23;3.93;;;;;;;;;;4995817;28;20217;-79
2022/10/01 11:13:07;;;;;;;4.77;4.27;;;;;;;;;;4993356;28;20318;-77
2022/10/01 11:15:54;;;;;;;4.53;3.97;;;;;;;;;;5014592;28;20220;-77
2022/10/01 11:18:32;;;;;;;5.23;4.57;;;;;;;;;;5012064;28;20275;-79
2022/10/01 11:21:23;;;;;;;4.63;4.23;;;;;;;;;;5011975;28;20252;-77
2022/10/01 11:23:52;;;;;;;4.97;4.03;;;;;;;;;;4997336;28;20236;-77
2022/10/01 11:26:32;;;;;;;4.10;3.30;;;;;;;;;;4997138;28;20316;-78
2022/10/01 11:29:16;;;;;;;4.82;3.53;;;;;;;;;;4994755;28;20228;-77
2022/10/01 11:31:57;;;;;;;4.37;3.33;;;;;;;;;;4977882;28;20236;-77
2022/10/01 11:34:41;;;;;;;4.67;3.50;;;;;;;;;;4984207;28;20329;-77
2022/10/01 11:37:19;;;;;;;3.50;3.20;;;;;;;;;;4992414;28;20702;-77
2022/10/01 11:39:49;;;;;;;4.47;3.00;;;;;;;;;;4983426;28;20226;-79
2022/10/01 11:42:21;;;;;;;4.38;3.15;;;;;;;;;;4997891;28;20228;-78
2022/10/01 11:44:52;;;;;;;3.25;2.95;;;;;;;;;;4980392;28;20228;-78
2022/10/01 11:47:22;;;;;;;3.78;2.53;;;;;;;;;;4980893;28;20239;-77
2022/10/01 11:49:49;;;;;;;3.25;2.85;;;;;;;;;;4997293;28;20639;-79
2022/10/01 11:52:23;;;;;;;2.42;2.22;;;;;;;;;;4994004;28;20284;-77
2022/10/01 11:58:51;;;;;;;3.35;2.47;;;;;;;;;;4892784;29;20232;-78
2022/10/01 12:01:22;;;;;;;2.63;2.40;;;;;;;;;;4892137;29;20307;-77
2022/10/01 12:03:51;;;;;;;7.63;2.28;;;;;;;;;;4972062;28;20282;-79
2022/10/01 12:06:43;;;;;;;3.38;3.00;;;;;;;;;;4996256;28;20723;-78
2022/10/01 12:09:15;;;;;;;3.00;2.70;;;;;;;;;;4983173;28;20232;-78
2022/10/01 12:11:54;;;;;;;3.10;2.33;;;;;;;;;;5009870;28;20225;-77
2022/10/01 12:14:23;;;;;;;2.92;2.30;;;;;;;;;;4975928;28;20225;-75
2022/10/01 12:16:52;;;;;;;3.60;2.28;;;;;;;;;;4974685;28;20221;-78
2022/10/01 12:19:27;;;;;;;2.75;2.00;;;;;;;;;;5011838;28;20220;-78
2022/10/01 12:22:14;;;;;;;3.58;2.30;;;;;;;;;;4975581;28;20224;-79
2022/10/01 12:24:43;;;;;;;2.17;2.00;;;;;;;;;;4977424;28;20224;-80
2022/10/01 12:27:30;;;;;;;4.90;2.00;;;;;;;;;;4997533;28;20306;-76
2022/10/01 12:30:23;;;;;;;3.75;2.25;;;;;;;;;;4997101;28;20225;-77
2022/10/01 12:33:16;;;;;;;2.38;1.70;;;;;;;;;;4983750;28;20251;-77
2022/10/01 12:36:06;;;;;;;5.20;2.10;;;;;;;;;;4980453;28;20688;-77
2022/10/01 12:38:55;;;;;;;3.22;2.60;;;;;;;;;;5007516;28;20228;-77
2022/10/01 12:41:29;;;;;;;4.53;2.10;;;;;;;;;;5009455;28;20631;-76
2022/10/01 12:44:11;;;;;;;4.72;2.20;;;;;;;;;;4997497;28;20255;-78
2022/10/01 12:47:37;;;;;;;2.50;2.20;;;;;;;;;;4997868;28;20705;-77
2022/10/01 12:50:34;;;;;;;2.00;1.80;;;;;;;;;;4930461;29;20246;-77
2022/10/01 12:53:19;;;;;;;2.28;1.70;;;;;;;;;;4914813;29;20792;-78
2022/10/01 12:55:46;;;;;;;4.10;1.48;;;;;;;;;;4995749;28;20227;-78
2022/10/01 12:59:00;;;;;;;2.47;1.55;;;;;;;;;;4994705;28;20301;-78
2022/10/01 13:02:02;;;;;;;2.58;1.58;;;;;;;;;;4974667;28;20220;-77
2022/10/01 13:04:46;;;;;;;2.45;1.50;;;;;;;;;;4977471;28;20239;-78
2022/10/01 13:07:45;;;;;;;2.08;1.73;;;;;;;;;;4998975;28;20263;-78
2022/10/01 13:10:17;;;;;;;3.03;1.63;;;;;;;;;;5008385;28;20216;-78
2022/10/01 13:13:05;;;;;;;4.15;2.05;;;;;;;;;;4957482;28;20221;-75
2022/10/01 13:15:37;;;;;;;3.10;1.60;;;;;;;;;;5012831;28;20240;-77
2022/10/01 13:18:53;;;;;;;4.53;2.17;;;;;;;;;;4995719;28;20590;-77
2022/10/01 13:21:37;;;;;;;3.58;2.00;;;;;;;;;;4940954;28;20241;-77
2022/10/01 13:24:21;;;;;;;2.88;1.92;;;;;;;;;;5007481;28;20229;-77
2022/10/01 13:26:57;;;;;;;2.55;1.95;;;;;;;;;;5007967;28;20279;-77
2022/10/01 13:29:44;;;;;;;2.28;1.58;;;;;;;;;;4997301;28;20232;-77
2022/10/01 13:32:33;;;;;;;2.63;1.90;;;;;;;;;;4987072;28;20718;-76
2022/10/01 13:35:28;;;;;;;6.57;2.00;;;;;;;;;;4983078;28;20382;-76
2022/10/01 13:37:56;;;;;;;3.67;2.00;;;;;;;;;;5006660;28;20768;-75
2022/10/01 13:40:32;;;;;;;4.38;2.50;;;;;;;;;;4982755;28;20220;-75
2022/10/01 13:43:03;;;;;;;3.10;2.80;;;;;;;;;;5002917;28;20227;-76
2022/10/01 13:45:38;;;;;;;4.20;3.40;;;;;;;;;;4977725;28;20239;-76
2022/10/01 13:48:09;;;;;;;7.07;3.75;;;;;;;;;;5011391;28;20347;-77
2022/10/01 13:50:36;;;;;;;6.55;3.50;;;;;;;;;;5012004;28;20228;-76
2022/10/01 13:53:22;;;;;;;6.47;4.05;;;;;;;;;;4997881;28;20311;-75
2022/10/01 13:55:53;;;;;;;7.57;2.30;;;;;;;;;;4999346;28;20247;-75
2022/10/01 13:58:21;;;;;;;2.90;1.80;;;;;;;;;;4984752;28;20308;-76
2022/10/01 14:00:47;;;;;;;4.33;2.40;;;;;;;;;;4996079;28;20220;-76
2022/10/01 14:03:26;;;;;;;4.05;1.92;;;;;;;;;;4997809;28;20256;-75
2022/10/01 14:05:56;;;;;;;1.73;1.33;;;;;;;;;;5001809;28;20233;-76
2022/10/01 14:08:38;;;;;;;2.13;1.17;;;;;;;;;;4988538;28;20295;-76
2022/10/01 14:16:41;;;;;;;2.83;1.30;;;;;;;;;;4997412;28;20228;-76
2022/10/01 14:19:12;;;;;;;2.27;1.27;;;;;;;;;;4972700;28;20248;-76
2022/10/01 14:21:43;;;;;;;1.57;1.47;;;;;;;;;;4986919;28;20606;-75
2022/10/01 14:24:30;;;;;;;2.83;1.50;;;;;;;;;;5010168;28;20862;-76
2022/10/01 14:26:58;;;;;;;1.60;1.50;;;;;;;;;;4982900;28;20260;-76
2022/10/01 14:29:31;;;;;;;3.20;1.63;;;;;;;;;;4994934;28;20300;-76
2022/10/01 14:32:23;;;;;;;2.47;1.83;;;;;;;;;;5000196;28;20615;-76
2022/10/01 14:34:55;;;;;;;3.70;2.40;;;;;;;;;;4996386;28;20316;-76
2022/10/01 14:37:20;;;;;;;3.23;2.93;;;;;;;;;;5006235;28;20229;-75
2022/10/01 14:39:46;;;;;;;4.30;3.17;;;;;;;;;;4987655;28;20231;-76
2022/10/01 14:42:17;;;;;;;3.10;2.87;;;;;;;;;;4991681;28;20220;-76
2022/10/01 14:44:44;;;;;;;4.63;3.60;;;;;;;;;;4981738;28;20769;-76
2022/10/01 14:47:26;;;;;;;3.90;3.17;;;;;;;;;;4979474;28;20229;-77
2022/10/01 14:49:55;;;;;;;4.27;3.47;;;;;;;;;;4995153;28;20227;-75
2022/10/01 14:52:21;;;;;;;14.23;11.00;;;;;;;;;;4999632;28;20224;-76
2022/10/01 14:54:55;;;;;;;4.33;3.33;;;;;;;;;;4997546;28;20311;-76
2022/10/01 14:57:34;;;;;;;3.10;2.63;;;;;;;;;;4987287;28;20227;-76
2022/10/01 15:00:07;;;;;;;2.73;2.53;;;;;;;;;;4964534;28;20277;-77
2022/10/01 15:02:33;;;;;;;4.17;2.60;;;;;;;;;;4975919;28;20220;-75
2022/10/01 15:04:58;;;;;;;4.50;4.10;;;;;;;;;;4992421;28;20284;-75
2022/10/01 15:07:30;;;;;;;5.47;3.63;;;;;;;;;;4989630;28;20229;-76
2022/10/01 15:10:08;;;;;;;4.87;3.40;;;;;;;;;;4979810;28;20217;-76
2022/10/01 15:12:45;;;;;;;2.93;2.30;;;;;;;;;;4977620;28;20644;-76
2022/10/01 15:15:17;;;;;;;4.27;2.37;;;;;;;;;;4993281;28;20303;-79
2022/10/01 15:17:45;;;;;;;3.13;1.90;;;;;;;;;;4992058;28;20213;-77
2022/10/01 15:20:11;;;;;;;4.57;2.30;;;;;;;;;;4974602;28;20217;-77
2022/10/01 15:22:36;;;;;;;4.73;2.33;;;;;;;;;;4977306;28;20287;-76
2022/10/01 15:25:05;;;;;;;3.00;2.70;;;;;;;;;;4977524;28;20231;-77
2022/10/01 15:27:35;;;;;;;3.17;2.33;;;;;;;;;;4993290;28;20225;-77